Bei Facebook empfehlenBei Twitter postenGoogle plusPinterest

Das Wetter im Erzgebirge am 28.04.2015

Wetter und Klima am 28.04.2015 Holzhau im Erzgebirge (630m ü.NN)
Letzte gemessene Temperatur und Uhrzeit der Messung23:45:00 Uhr-0.50 °C
Temperatur (Maximum / Höchstwert) und Uhrzeit der Messung00:00:00 Uhr7.10 °C
Temperatur (Minimum / Tiefstwert) und Uhrzeit der Messung23:30:00-0.60 °C
Errechneter Absolutwert der Temperaturschwankungen zwischen Tmin und Tmax des Tages7.70 K
Errechnete Tagesmitteltemperatur2.54688 °C
Gesamt - Niederschlag des Tages (in flüssiger Form)12.44 Liter / m²
Luftdruck (Maximum / Höchstwert) und Zeitpunkt der Messung23:45:00 Uhr1016.20 hPa
Luftdruck (Minimum / Tiefstwert) und Zeitpunkt der Messung00:15:00 Uhr1002.30 hPa
Errechneter Absolutwert der Luftdruckschwankungen des Tages13.90 hPa
Höchste gemessene Windgeschwindigkeit und Uhrzeit der Messung10:45:00 Uhr13.32 km/h
Errechnete Windhäufigkeit in Relation zu den Messwerten des Tages20.83333 %
Niedrigste Windkühle (Windchill) und Zeitpunkt der Messung10:45:00 Uhr-2.70 °C
Taupunkt (Maximum / Höchstwert) und Uhrzeit der Messung00:15:00 Uhr5.90 °C
Taupunkt (Minimum / Tiefstwert) und Uhrzeit der Messung23:30:00-1.90 °C
Anzahl der automatisch eingelesenen Messwerte 96

Detaillierte Wetter- und Klima- Messwerte für den 28.04.2015 in Holzhau im Erzgebirge (630m ü.NN)
ZeitTemperaturLuftdruckRel. LuftfeuchteWindWindrichtungWindchillTaupunktNiederschlag l/m²
23:45:00-0.50 °C1016.20 hPa92.00 %-1.80 °C12.44
23:30:00-0.60 °C1016.00 hPa92.00 %-1.90 °C12.44
23:15:00-0.60 °C1015.80 hPa92.00 %-1.90 °C12.44
23:00:00-0.20 °C1015.80 hPa92.00 %-1.50 °C12.44
22:45:000.20 °C1015.60 hPa92.00 %-0.90 °C12.44
22:30:000.40 °C1015.40 hPa92.00 %-0.70 °C11.92
22:15:000.70 °C1015.50 hPa92.00 %-0.40 °C11.92
22:00:000.90 °C1015.40 hPa92.00 %-0.20 °C11.92
21:45:000.90 °C1015.20 hPa92.00 %-0.20 °C11.92
21:30:001.10 °C1015.10 hPa92.00 %-0.10 °C11.92
21:15:001.20 °C1014.90 hPa92.00 %0.00 °C11.92
21:00:001.30 °C1014.80 hPa92.00 %0.10 °C11.92
20:45:001.50 °C1014.50 hPa92.00 %0.30 °C11.92
20:30:001.60 °C1014.20 hPa92.00 %0.40 °C11.92
20:15:001.90 °C1014.10 hPa92.00 %0.70 °C11.92
20:00:002.30 °C1013.80 hPa92.00 %1.10 °C11.92
19:45:002.60 °C1013.60 hPa92.00 %1.40 °C11.92
19:30:002.80 °C1013.30 hPa93.00 %1.80 °C11.92
19:15:002.90 °C1013.00 hPa93.00 %1.90 °C11.40
19:00:002.80 °C1013.00 hPa93.00 %1.80 °C11.40
18:45:002.70 °C1012.80 hPa93.00 %1.70 °C11.40
18:30:002.60 °C1012.60 hPa92.00 %1.40 °C10.88
18:15:002.60 °C1012.70 hPa92.00 %1.40 °C10.88
18:00:002.60 °C1012.40 hPa93.00 %1.60 °C10.36
17:45:002.40 °C1012.20 hPa93.00 %1.40 °C10.36
17:30:002.40 °C1012.20 hPa93.00 %1.40 °C9.85
17:15:002.30 °C1011.90 hPa93.00 %1.30 °C9.85
17:00:002.10 °C1011.80 hPa93.00 %1.10 °C9.33
16:45:001.40 °C1011.50 hPa93.00 %0.40 °C8.81
16:30:001.30 °C1011.60 hPa93.00 %0.30 °C8.81
16:15:001.50 °C1011.40 hPa93.00 %0.50 °C8.29
16:00:001.30 °C1011.50 hPa93.00 %0.30 °C8.29
15:45:001.30 °C1011.40 hPa93.00 %0.30 °C7.77
15:30:001.10 °C1011.20 hPa93.00 %8.28 km/hNW-1.50 °C0.10 °C7.26
15:15:001.20 °C1010.90 hPa92.00 %0.00 °C7.26
15:00:001.40 °C1010.70 hPa92.00 %6.48 km/hWNW-0.60 °C0.20 °C7.26
14:45:001.60 °C1010.50 hPa92.00 %3.24 km/hWNW1.60 °C0.40 °C6.74
14:30:001.50 °C1010.40 hPa93.00 %5.40 km/hW-0.10 °C0.50 °C6.74
14:15:001.40 °C1010.00 hPa93.00 %0.40 °C6.22
14:00:001.20 °C1010.00 hPa93.00 %0.20 °C6.22
13:45:001.10 °C1009.70 hPa93.00 %0.10 °C5.70
13:30:000.80 °C1009.50 hPa93.00 %-0.20 °C5.70
13:15:000.50 °C1009.30 hPa93.00 %-0.50 °C5.18
13:00:000.40 °C1009.20 hPa93.00 %-0.60 °C5.18
12:45:000.40 °C1009.10 hPa93.00 %-0.60 °C5.18
12:30:000.40 °C1008.80 hPa93.00 %-0.60 °C5.18
12:15:000.40 °C1008.60 hPa93.00 %-0.60 °C5.18
12:00:000.40 °C1008.50 hPa93.00 %-0.60 °C5.18
11:45:000.50 °C1008.10 hPa93.00 %-0.50 °C5.18
11:30:000.70 °C1007.70 hPa93.00 %-0.30 °C5.18
11:15:000.80 °C1007.70 hPa93.00 %-0.20 °C5.18
11:00:000.90 °C1007.30 hPa93.00 %5.04 km/hWNW-0.60 °C-0.10 °C5.18
10:45:001.10 °C1007.00 hPa93.00 %13.32 km/hW-2.70 °C0.10 °C5.18
10:30:001.70 °C1006.90 hPa93.00 %3.24 km/hSSW1.70 °C0.70 °C5.18
10:15:001.90 °C1006.90 hPa93.00 %3.60 km/hW1.90 °C0.90 °C4.67
10:00:002.20 °C1006.30 hPa93.00 %1.20 °C4.15
09:45:002.40 °C1006.20 hPa93.00 %5.76 km/hW0.80 °C1.40 °C3.63
09:30:002.40 °C1006.00 hPa93.00 %9.00 km/hW-0.20 °C1.40 °C3.11
09:15:002.40 °C1006.00 hPa93.00 %1.40 °C2.59
09:00:002.50 °C1005.60 hPa93.00 %1.50 °C2.08
08:45:002.70 °C1005.30 hPa93.00 %8.64 km/hWSW0.30 °C1.70 °C1.56
08:30:002.90 °C1005.20 hPa93.00 %5.40 km/hWNW1.50 °C1.90 °C1.56
08:15:002.90 °C1004.90 hPa93.00 %1.90 °C1.04
08:00:002.80 °C1004.70 hPa93.00 %1.80 °C1.04
07:45:002.90 °C1004.60 hPa93.00 %1.90 °C1.04
07:30:002.90 °C1004.50 hPa93.00 %1.90 °C1.04
07:15:002.90 °C1004.50 hPa93.00 %7.56 km/hNW0.80 °C1.90 °C0.52
07:00:002.90 °C1004.50 hPa93.00 %1.90 °C0.52
06:45:002.90 °C1004.20 hPa93.00 %1.90 °C0.52
06:30:002.90 °C1004.10 hPa93.00 %1.90 °C0.52
06:15:002.90 °C1004.20 hPa93.00 %1.90 °C0.52
06:00:003.10 °C1004.10 hPa93.00 %2.10 °C0.52
05:45:003.10 °C1004.00 hPa93.00 %2.10 °C0.52
05:30:003.10 °C1004.00 hPa93.00 %1.80 km/hSSO3.10 °C2.10 °C0.52
05:15:003.10 °C1003.60 hPa93.00 %2.10 °C0.52
05:00:003.30 °C1003.40 hPa93.00 %2.30 °C0.52
04:45:003.40 °C1003.50 hPa93.00 %6.12 km/hWSW1.80 °C2.40 °C0.52
04:30:003.60 °C1003.20 hPa93.00 %2.60 °C0.52
04:15:003.90 °C1003.10 hPa93.00 %2.90 °C0.52
04:00:004.10 °C1003.10 hPa93.00 %3.10 °C0.52
03:45:004.40 °C1003.00 hPa93.00 %3.40 °C0.52
03:30:004.80 °C1002.90 hPa93.00 %3.80 °C0.52
03:15:005.30 °C1002.90 hPa93.00 %7.92 km/hWNW3.50 °C4.30 °C0.52
03:00:005.50 °C1002.60 hPa93.00 %4.68 km/hSSW5.50 °C4.50 °C0.52
02:45:005.80 °C1002.50 hPa93.00 %4.80 °C0.52
02:30:006.10 °C1002.50 hPa93.00 %5.10 °C0.52
02:15:006.20 °C1002.90 hPa93.00 %5.20 °C0.52
02:00:006.40 °C1002.80 hPa93.00 %5.40 °C 
01:45:006.60 °C1002.60 hPa93.00 %5.60 °C 
01:30:006.60 °C1002.60 hPa93.00 %6.84 km/hSW5.30 °C5.60 °C 
01:15:006.80 °C1002.40 hPa93.00 %5.70 °C 
01:00:006.80 °C1002.40 hPa93.00 %2.88 km/hW6.80 °C5.70 °C 
00:45:006.90 °C1002.60 hPa93.00 %5.80 °C 
00:30:006.90 °C1002.50 hPa93.00 %5.80 °C 
00:15:007.00 °C1002.30 hPa93.00 %10.08 km/hWNW5.00 °C5.90 °C 
00:00:007.10 °C1002.40 hPa92.00 %5.90 °C 

Permanenter Link zu dieser Seite: Wetter im Erzgebirge am 28.04.2015
Performance-Info: Die Erstellung der Seite / Statistik(en) / Tabelle(n) erforderte 5 Datenbankserver-Abfrage(n) und dauerte 99 Millisekunden. (Dieser Messwert ist von der Gesamt-Auslastung des Servers abhängig.)
Erzgebirge - Wetter | Erzgebirge - Wetter (Mobilgeräte) | Komplette Klimadatenbank